Twin Springs, Nevada Weather observations

Data are for observation ending at time listed.
 Day   Time    Ave.   Ave.  Ave.  Vector   Max.   Stn.    Total    Solar   Ave.  
  of    of     Air    Rel.  Wind   Wind    Wind   Baro.  Precip.   Rad.    Soil  
Year   Day     Temp.  Hum.  Speed  Dir.    Gust   Pres.                    Temp. 
2015   (PST)    F      %     mph   deg.    mph     mb.     in.     W/m2     F   
------------------------------------------------------------------------------
 108   15:00   75.4    10    5.2   284     14.7    842     0.00     821    65.0
 108   16:00   74.1    10    6.5   359     27.0    842     0.00     449    66.3
 108   17:00   70.0    12    7.7    95     28.9    842     0.00      88    67.7
 108   18:00   68.8    13    3.5   283     17.9    842     0.00      66    67.9
 108   19:00   64.9    14    3.0   128      7.0    842     0.00       4    67.3
 108   20:00   64.1    14    2.8    26      7.9    843     0.00       0    66.4
 108   21:00   61.9    15    4.2    35     10.4    843     0.00       0    65.4
 108   22:00   56.4    18    5.1   330     11.3    844     0.00       0    64.3
 108   23:00   52.6    21    2.4   301     10.1    844     0.00       0    63.1
 109    0:00   52.1    24    3.5   346     11.0    844     0.00       0    61.9
 109    1:00   48.5    28    2.3   325      6.9    845     0.00       0    60.7
 109    2:00   47.0    29    2.6   317      6.0    845     0.00       0    59.6
 109    3:00   44.6    33    3.7   333      6.1    845     0.00       0    58.5
 109    4:00   41.7    37    3.7   349      6.1    845     0.00       0    57.5
 109    5:00   35.1    46    4.5   309      8.0    845     0.00       0    56.6
 109    6:00   35.3    45    5.5   319      8.2    846     0.00      52    55.6
 109    7:00   44.6    33    5.0   322      6.9    846     0.00     256    54.7
 109    8:00   51.5    28    4.1   321      7.1    846     0.00     483    54.3
 109    9:00   59.0    21    2.6   287      6.4    845     0.00     695    54.6
 109   10:00   63.8    18    3.2   148      9.1    845     0.00     859    56.0
 109   11:00   67.1    15    4.6   122     11.1    844     0.00     973    58.4
 109   12:00   70.1    12    4.0    14     11.8    844     0.00    1019    61.7
 109   13:00   71.8    11    5.2   348     13.8    842     0.00     998    64.8
 109   14:00   74.2    10    4.6   348     12.9    842     0.00     902    66.4

Return to Twin Springs, Nevada graphs page.


Western Regional Climate Center,wrcc@dri.edu